Time;durP1;ratioP1;P1;durP2;ratioP2;P2;SDS_P1;SDS_P2;PMS_P1;PMS_P2;Temp;Humidity;BMP_temperature;BMP_pressure;BME280_temperature;BME280_humidity;BME280_pressure;Samples;Min_cycle;Max_cycle;Signal;HPM_P1;HPM_P2
2022/10/07 00:01:12;;;;;;;22.90;4.80;;;;;;;;;;4977019;28;20049;-65
2022/10/07 00:03:39;;;;;;;17.35;3.22;;;;;;;;;;4975270;28;20245;-65
2022/10/07 00:06:07;;;;;;;21.05;3.90;;;;;;;;;;4977117;28;20038;-65
2022/10/07 00:08:35;;;;;;;16.50;2.95;;;;;;;;;;4978181;28;20156;-65
2022/10/07 00:11:04;;;;;;;19.70;3.05;;;;;;;;;;4979578;28;20738;-65
2022/10/07 00:13:31;;;;;;;19.80;3.45;;;;;;;;;;4976200;28;20057;-65
2022/10/07 00:16:02;;;;;;;22.40;3.65;;;;;;;;;;4978670;28;20054;-65
2022/10/07 00:18:28;;;;;;;24.50;3.33;;;;;;;;;;4978536;28;20053;-65
2022/10/07 00:20:54;;;;;;;19.48;3.08;;;;;;;;;;4978804;28;21813;-65
2022/10/07 00:23:21;;;;;;;20.23;3.22;;;;;;;;;;4979499;28;20057;-65
2022/10/07 00:25:47;;;;;;;16.02;2.95;;;;;;;;;;4977264;28;20137;-64
2022/10/07 00:28:13;;;;;;;18.05;3.97;;;;;;;;;;4975798;28;22041;-65
2022/10/07 00:30:39;;;;;;;12.60;3.38;;;;;;;;;;4975827;28;20078;-65
2022/10/07 00:33:05;;;;;;;13.20;2.75;;;;;;;;;;4968890;28;20385;-65
2022/10/07 00:35:34;;;;;;;15.57;3.72;;;;;;;;;;4978553;28;20050;-65
2022/10/07 00:38:00;;;;;;;19.70;3.67;;;;;;;;;;4977659;28;20140;-65
2022/10/07 00:40:29;;;;;;;19.85;3.15;;;;;;;;;;4973122;28;20821;-65
2022/10/07 00:42:55;;;;;;;22.33;3.25;;;;;;;;;;4976038;28;20057;-65
2022/10/07 00:45:21;;;;;;;17.27;2.63;;;;;;;;;;4977315;28;20061;-65
2022/10/07 00:47:50;;;;;;;26.75;3.08;;;;;;;;;;4976850;28;20053;-65
2022/10/07 00:50:20;;;;;;;17.95;3.13;;;;;;;;;;4975625;28;20054;-65
2022/10/07 00:52:51;;;;;;;17.08;2.90;;;;;;;;;;4976527;28;20038;-65
2022/10/07 00:55:19;;;;;;;16.70;3.15;;;;;;;;;;4978864;28;20050;-65
2022/10/07 00:57:47;;;;;;;17.77;2.80;;;;;;;;;;4976600;28;20054;-65
2022/10/07 01:00:13;;;;;;;16.48;2.92;;;;;;;;;;4976365;28;20046;-65
2022/10/07 01:02:39;;;;;;;21.08;3.45;;;;;;;;;;4970878;28;22068;-65
2022/10/07 01:05:07;;;;;;;15.95;3.00;;;;;;;;;;4973774;28;20050;-65
2022/10/07 01:07:33;;;;;;;17.00;2.95;;;;;;;;;;4974899;28;20042;-65
2022/10/07 01:10:00;;;;;;;16.80;2.70;;;;;;;;;;4977221;28;20042;-65
2022/10/07 01:12:31;;;;;;;19.30;2.95;;;;;;;;;;4974218;28;20057;-65
2022/10/07 01:15:07;;;;;;;16.80;3.40;;;;;;;;;;4976544;28;20122;-65
2022/10/07 01:17:40;;;;;;;14.23;2.63;;;;;;;;;;4972177;28;20050;-65
2022/10/07 01:20:25;;;;;;;17.88;3.67;;;;;;;;;;4974817;28;20434;-65
2022/10/07 01:22:58;;;;;;;21.10;3.38;;;;;;;;;;4972184;28;20050;-65
2022/10/07 01:25:25;;;;;;;19.48;3.75;;;;;;;;;;4974565;28;20121;-65
2022/10/07 01:27:54;;;;;;;20.13;3.30;;;;;;;;;;4974830;28;20560;-65
2022/10/07 01:30:20;;;;;;;24.73;3.42;;;;;;;;;;4977341;28;20172;-65
2022/10/07 01:32:53;;;;;;;17.95;3.38;;;;;;;;;;4972021;28;20066;-65
2022/10/07 01:35:23;;;;;;;19.75;3.55;;;;;;;;;;4968180;28;20038;-65
2022/10/07 01:37:52;;;;;;;10.43;2.35;;;;;;;;;;4971385;28;20046;-65
2022/10/07 01:40:21;;;;;;;19.85;3.17;;;;;;;;;;4975949;28;20053;-65
2022/10/07 01:42:48;;;;;;;20.50;3.13;;;;;;;;;;4977204;28;20092;-65
2022/10/07 01:45:20;;;;;;;16.45;3.10;;;;;;;;;;4972367;28;20193;-65
2022/10/07 01:47:46;;;;;;;17.90;3.58;;;;;;;;;;4978459;28;20042;-65
2022/10/07 01:50:13;;;;;;;20.20;3.05;;;;;;;;;;4977863;28;20490;-65
2022/10/07 01:52:51;;;;;;;17.75;3.15;;;;;;;;;;4975645;28;20049;-65
2022/10/07 01:55:27;;;;;;;24.63;3.85;;;;;;;;;;4979400;28;20119;-65
2022/10/07 01:58:12;;;;;;;16.00;4.05;;;;;;;;;;4978314;28;20054;-65
2022/10/07 02:00:43;;;;;;;18.70;3.20;;;;;;;;;;4976213;28;20049;-65
2022/10/07 02:03:21;;;;;;;16.90;3.83;;;;;;;;;;4988194;28;20054;-65
2022/10/07 02:05:53;;;;;;;21.73;3.47;;;;;;;;;;4975515;28;20048;-65
2022/10/07 02:08:29;;;;;;;20.08;4.18;;;;;;;;;;4973022;28;20042;-65
2022/10/07 02:10:57;;;;;;;18.25;3.50;;;;;;;;;;4977986;28;20061;-65
2022/10/07 02:13:28;;;;;;;19.65;4.50;;;;;;;;;;4976653;28;20066;-65
2022/10/07 02:16:06;;;;;;;21.67;4.40;;;;;;;;;;4980072;28;20450;-65
2022/10/07 02:18:33;;;;;;;19.90;4.28;;;;;;;;;;4977894;28;20145;-65
2022/10/07 02:21:02;;;;;;;15.70;3.88;;;;;;;;;;4978568;28;22022;-65
2022/10/07 02:23:32;;;;;;;18.88;4.40;;;;;;;;;;4975225;28;20490;-65
2022/10/07 02:26:00;;;;;;;21.27;4.18;;;;;;;;;;4976884;28;20057;-65
2022/10/07 02:28:26;;;;;;;18.65;3.83;;;;;;;;;;4976326;28;20141;-65
2022/10/07 02:30:54;;;;;;;21.85;5.43;;;;;;;;;;4975915;28;20472;-65
2022/10/07 02:33:22;;;;;;;18.95;3.78;;;;;;;;;;4979953;28;20045;-65
2022/10/07 02:35:52;;;;;;;17.30;4.10;;;;;;;;;;4979399;28;20138;-65
2022/10/07 02:38:19;;;;;;;17.25;4.20;;;;;;;;;;4981762;28;20144;-65
2022/10/07 02:40:57;;;;;;;24.58;5.40;;;;;;;;;;4981869;28;20482;-65
2022/10/07 02:43:28;;;;;;;16.33;5.18;;;;;;;;;;4977267;28;20494;-65
2022/10/07 02:46:00;;;;;;;19.52;4.40;;;;;;;;;;4977718;28;20050;-65
2022/10/07 02:48:29;;;;;;;23.60;4.88;;;;;;;;;;4980644;28;20054;-65
2022/10/07 02:50:59;;;;;;;19.45;4.80;;;;;;;;;;4978883;28;20141;-65
2022/10/07 02:53:27;;;;;;;20.85;5.18;;;;;;;;;;4977697;28;20062;-65
2022/10/07 02:55:54;;;;;;;16.88;3.90;;;;;;;;;;4980854;28;20058;-65
2022/10/07 02:58:24;;;;;;;18.13;5.15;;;;;;;;;;4980121;28;20055;-65
2022/10/07 03:00:51;;;;;;;24.75;4.60;;;;;;;;;;4979728;28;20038;-65
2022/10/07 03:03:18;;;;;;;23.48;6.07;;;;;;;;;;4978389;28;20077;-65
2022/10/07 03:05:45;;;;;;;28.23;6.03;;;;;;;;;;4981725;28;20050;-64
2022/10/07 03:08:11;;;;;;;19.33;4.75;;;;;;;;;;4979925;28;20125;-65
2022/10/07 03:10:38;;;;;;;20.33;4.68;;;;;;;;;;4976599;28;20053;-65
2022/10/07 03:13:04;;;;;;;26.73;5.50;;;;;;;;;;4977817;28;20108;-65
2022/10/07 03:15:31;;;;;;;23.67;5.65;;;;;;;;;;4979926;28;20498;-65
2022/10/07 03:17:57;;;;;;;17.70;4.68;;;;;;;;;;4981540;28;20084;-65
2022/10/07 03:20:23;;;;;;;17.45;4.68;;;;;;;;;;4981343;28;20046;-65
2022/10/07 03:22:50;;;;;;;28.80;5.93;;;;;;;;;;4978393;28;20042;-65
2022/10/07 03:25:16;;;;;;;23.75;4.95;;;;;;;;;;4980873;28;20078;-65
2022/10/07 03:27:42;;;;;;;22.90;4.90;;;;;;;;;;4979263;28;21983;-65
2022/10/07 03:30:09;;;;;;;25.52;5.07;;;;;;;;;;4978501;28;20054;-65
2022/10/07 03:32:36;;;;;;;21.00;5.40;;;;;;;;;;4989713;28;20132;-65
2022/10/07 03:35:02;;;;;;;20.38;4.90;;;;;;;;;;4978278;28;20054;-65
2022/10/07 03:37:29;;;;;;;19.40;4.70;;;;;;;;;;4983840;28;20142;-65
2022/10/07 03:39:55;;;;;;;22.73;6.80;;;;;;;;;;4985571;28;20309;-65
2022/10/07 03:42:22;;;;;;;24.52;6.25;;;;;;;;;;4984405;28;20054;-65
2022/10/07 03:44:49;;;;;;;29.70;6.18;;;;;;;;;;4982940;28;20049;-65
2022/10/07 03:47:16;;;;;;;27.90;5.50;;;;;;;;;;4981145;28;20046;-65
2022/10/07 03:49:43;;;;;;;32.67;5.55;;;;;;;;;;4980845;28;20061;-65
2022/10/07 03:52:09;;;;;;;26.27;6.25;;;;;;;;;;4979105;28;20121;-65
2022/10/07 03:54:35;;;;;;;28.80;6.25;;;;;;;;;;4978012;28;20145;-65
2022/10/07 03:57:01;;;;;;;23.75;5.22;;;;;;;;;;4978006;28;20505;-65
2022/10/07 03:59:27;;;;;;;22.67;6.35;;;;;;;;;;4978933;28;20057;-65
2022/10/07 04:01:53;;;;;;;28.17;5.70;;;;;;;;;;4979272;28;20034;-65
2022/10/07 04:04:20;;;;;;;27.45;5.75;;;;;;;;;;4976088;28;20065;-65
2022/10/07 04:06:46;;;;;;;34.35;8.15;;;;;;;;;;4976954;28;20161;-65
2022/10/07 04:09:13;;;;;;;32.80;6.22;;;;;;;;;;4977198;28;20062;-65
2022/10/07 04:11:40;;;;;;;21.30;5.70;;;;;;;;;;4977736;28;20542;-65
2022/10/07 04:14:07;;;;;;;32.35;6.55;;;;;;;;;;4979461;28;20078;-65
2022/10/07 04:16:33;;;;;;;28.73;6.30;;;;;;;;;;4983003;28;20104;-65
2022/10/07 04:18:59;;;;;;;22.65;6.20;;;;;;;;;;4975432;28;20077;-65
2022/10/07 04:21:25;;;;;;;27.15;5.60;;;;;;;;;;4978110;28;20159;-65
2022/10/07 04:23:51;;;;;;;24.98;5.80;;;;;;;;;;4978279;28;20054;-65
2022/10/07 04:26:18;;;;;;;23.83;5.63;;;;;;;;;;4977452;28;20046;-65
2022/10/07 04:28:44;;;;;;;24.88;6.80;;;;;;;;;;4973909;28;20042;-65
2022/10/07 04:31:10;;;;;;;25.58;7.05;;;;;;;;;;4979580;28;20129;-66
2022/10/07 04:33:38;;;;;;;30.25;6.82;;;;;;;;;;4973642;28;20045;-64
2022/10/07 04:36:05;;;;;;;32.30;8.05;;;;;;;;;;4974864;28;21713;-65
2022/10/07 04:38:31;;;;;;;24.63;7.28;;;;;;;;;;4978968;28;20484;-64
2022/10/07 04:40:58;;;;;;;31.50;7.97;;;;;;;;;;4981960;28;20049;-65
2022/10/07 04:43:26;;;;;;;34.65;7.90;;;;;;;;;;4981577;28;21853;-66
2022/10/07 04:45:54;;;;;;;30.08;7.95;;;;;;;;;;4979134;28;20054;-65
2022/10/07 04:48:21;;;;;;;32.22;7.10;;;;;;;;;;4978785;28;20042;-65
2022/10/07 04:50:50;;;;;;;27.35;7.78;;;;;;;;;;4978915;28;20054;-64
2022/10/07 04:53:16;;;;;;;35.25;7.40;;;;;;;;;;4978110;28;20050;-65
2022/10/07 04:55:45;;;;;;;26.13;7.30;;;;;;;;;;4977479;28;20047;-65
2022/10/07 04:58:11;;;;;;;32.92;6.95;;;;;;;;;;4977240;28;20060;-65
2022/10/07 05:00:43;;;;;;;28.13;7.30;;;;;;;;;;4970911;28;20073;-65
2022/10/07 05:03:09;;;;;;;24.83;7.50;;;;;;;;;;4980560;28;20450;-65
2022/10/07 05:05:38;;;;;;;33.55;8.10;;;;;;;;;;4980797;28;20077;-66
2022/10/07 05:08:04;;;;;;;31.90;8.02;;;;;;;;;;4981641;28;20108;-66
2022/10/07 05:10:30;;;;;;;25.38;7.10;;;;;;;;;;4959980;28;20073;-65
2022/10/07 05:12:56;;;;;;;21.23;6.72;;;;;;;;;;4960907;28;20510;-64
2022/10/07 05:15:22;;;;;;;29.52;7.65;;;;;;;;;;4939196;28;20438;-65
2022/10/07 05:17:49;;;;;;;31.48;7.88;;;;;;;;;;4956834;28;20042;-65
2022/10/07 05:20:15;;;;;;;22.92;7.45;;;;;;;;;;4951673;28;20053;-65
2022/10/07 05:22:41;;;;;;;24.02;6.65;;;;;;;;;;4960664;28;20116;-65
2022/10/07 05:25:07;;;;;;;28.25;7.32;;;;;;;;;;4958850;28;20074;-65
2022/10/07 05:27:33;;;;;;;29.38;7.90;;;;;;;;;;4961637;28;20051;-64
2022/10/07 05:29:59;;;;;;;22.80;7.07;;;;;;;;;;4957470;28;20914;-64
2022/10/07 05:32:26;;;;;;;27.80;7.00;;;;;;;;;;4963264;28;20101;-65
2022/10/07 05:34:53;;;;;;;31.63;8.13;;;;;;;;;;4967581;28;20030;-65
2022/10/07 05:37:19;;;;;;;37.55;7.38;;;;;;;;;;4965718;28;20155;-65
2022/10/07 05:39:45;;;;;;;32.25;8.18;;;;;;;;;;4967981;28;20043;-65
2022/10/07 05:42:12;;;;;;;34.50;7.97;;;;;;;;;;4966907;28;20121;-65
2022/10/07 05:44:39;;;;;;;27.25;9.13;;;;;;;;;;4965116;28;20046;-65
2022/10/07 05:47:05;;;;;;;24.60;6.95;;;;;;;;;;4967376;28;20042;-65
2022/10/07 05:49:31;;;;;;;32.00;8.55;;;;;;;;;;4947888;28;20063;-65
2022/10/07 05:51:57;;;;;;;30.13;7.75;;;;;;;;;;4966238;28;20039;-65
2022/10/07 05:54:23;;;;;;;25.95;7.30;;;;;;;;;;4965873;28;20126;-65
2022/10/07 05:56:50;;;;;;;28.88;7.03;;;;;;;;;;4949098;28;20046;-65
2022/10/07 05:59:16;;;;;;;25.75;6.90;;;;;;;;;;4967132;28;20158;-65
2022/10/07 06:01:42;;;;;;;33.13;7.93;;;;;;;;;;4966101;28;20421;-65
2022/10/07 06:04:08;;;;;;;24.27;7.13;;;;;;;;;;4966774;28;20494;-64
2022/10/07 06:06:35;;;;;;;25.60;7.13;;;;;;;;;;4968591;28;20057;-65
2022/10/07 06:14:40;;;;;;;22.63;7.50;;;;;;;;;;4989957;28;20054;-65
2022/10/07 06:17:07;;;;;;;30.67;7.55;;;;;;;;;;4971480;28;20053;-65
2022/10/07 06:19:33;;;;;;;28.38;7.85;;;;;;;;;;4988944;28;20469;-65
2022/10/07 06:21:59;;;;;;;32.03;8.30;;;;;;;;;;4972762;28;20376;-65
2022/10/07 06:24:25;;;;;;;28.23;8.88;;;;;;;;;;4988710;28;20116;-65
2022/10/07 06:26:54;;;;;;;23.20;7.57;;;;;;;;;;4985075;28;20042;-65
2022/10/07 06:29:20;;;;;;;26.63;8.65;;;;;;;;;;4971355;28;20236;-65
2022/10/07 06:31:46;;;;;;;22.70;8.27;;;;;;;;;;4990246;28;20138;-65
2022/10/07 06:34:12;;;;;;;33.55;8.82;;;;;;;;;;4971569;28;20058;-65
2022/10/07 06:36:38;;;;;;;26.63;8.23;;;;;;;;;;4993427;28;20329;-64
2022/10/07 06:39:04;;;;;;;22.75;7.15;;;;;;;;;;4987755;28;20406;-64
2022/10/07 06:41:31;;;;;;;27.38;9.27;;;;;;;;;;4989834;28;20426;-64
2022/10/07 06:43:57;;;;;;;34.72;8.38;;;;;;;;;;4988125;28;20046;-64
2022/10/07 06:46:23;;;;;;;35.38;8.80;;;;;;;;;;4988600;28;20124;-64
2022/10/07 06:48:50;;;;;;;27.63;8.18;;;;;;;;;;4989995;28;20552;-64
2022/10/07 06:51:17;;;;;;;30.85;8.80;;;;;;;;;;4989800;28;20485;-64
2022/10/07 06:53:43;;;;;;;24.67;7.38;;;;;;;;;;4986423;28;20050;-64
2022/10/07 06:56:11;;;;;;;30.60;7.88;;;;;;;;;;4970619;28;20321;-64
2022/10/07 06:58:37;;;;;;;32.03;9.40;;;;;;;;;;4955601;28;20153;-64
2022/10/07 07:01:04;;;;;;;24.90;8.40;;;;;;;;;;4970242;28;20069;-64
2022/10/07 07:03:30;;;;;;;29.10;8.02;;;;;;;;;;4969503;28;20124;-64
2022/10/07 07:05:56;;;;;;;23.55;8.32;;;;;;;;;;4987855;28;20212;-64
2022/10/07 07:08:26;;;;;;;18.60;7.63;;;;;;;;;;4988125;28;20050;-64
2022/10/07 07:10:53;;;;;;;27.17;8.18;;;;;;;;;;4989259;28;20065;-64
2022/10/07 07:13:19;;;;;;;25.60;7.07;;;;;;;;;;4985335;28;20042;-64
2022/10/07 07:15:54;;;;;;;25.48;8.23;;;;;;;;;;4987435;28;20466;-64
2022/10/07 07:18:20;;;;;;;26.75;9.27;;;;;;;;;;4985810;28;20144;-64
2022/10/07 07:20:46;;;;;;;38.63;9.95;;;;;;;;;;4985900;28;20054;-64
2022/10/07 07:23:12;;;;;;;27.73;8.18;;;;;;;;;;4987166;28;20061;-64
2022/10/07 07:25:39;;;;;;;30.70;7.90;;;;;;;;;;4986862;28;20137;-64
2022/10/07 07:28:06;;;;;;;28.80;7.85;;;;;;;;;;4986195;28;20159;-64
2022/10/07 07:30:32;;;;;;;27.90;8.10;;;;;;;;;;4987317;28;20086;-65
2022/10/07 07:32:59;;;;;;;25.10;8.00;;;;;;;;;;4988486;28;20165;-64
2022/10/07 07:35:26;;;;;;;33.88;8.45;;;;;;;;;;4987356;28;20112;-64
2022/10/07 07:37:53;;;;;;;35.35;7.55;;;;;;;;;;4987892;28;20394;-65
2022/10/07 07:40:20;;;;;;;18.92;7.55;;;;;;;;;;4986252;28;20605;-64
2022/10/07 07:42:46;;;;;;;30.80;7.93;;;;;;;;;;4987014;28;20498;-65
2022/10/07 07:45:13;;;;;;;31.55;9.20;;;;;;;;;;4987846;28;20057;-64
2022/10/07 07:47:40;;;;;;;25.58;7.20;;;;;;;;;;4988246;28;20042;-66
2022/10/07 07:50:06;;;;;;;32.08;7.38;;;;;;;;;;4986022;28;20204;-65
2022/10/07 07:52:33;;;;;;;25.40;6.53;;;;;;;;;;4986321;28;20149;-65
2022/10/07 07:55:01;;;;;;;21.42;6.38;;;;;;;;;;4986155;28;20046;-65
2022/10/07 07:57:28;;;;;;;24.05;7.47;;;;;;;;;;4986475;28;20410;-65
2022/10/07 07:59:55;;;;;;;24.88;6.60;;;;;;;;;;4987640;28;20157;-66
2022/10/07 08:02:22;;;;;;;26.02;6.47;;;;;;;;;;4984477;28;20050;-66
2022/10/07 08:04:48;;;;;;;22.73;6.93;;;;;;;;;;4986683;28;20054;-65
2022/10/07 08:07:14;;;;;;;23.75;6.38;;;;;;;;;;4988817;28;20100;-66
2022/10/07 08:09:40;;;;;;;22.55;6.22;;;;;;;;;;4976629;28;20078;-65
2022/10/07 08:12:07;;;;;;;22.40;6.05;;;;;;;;;;4950374;28;20095;-65
2022/10/07 08:14:33;;;;;;;27.58;7.55;;;;;;;;;;4937554;28;20118;-65
2022/10/07 08:16:59;;;;;;;25.35;6.50;;;;;;;;;;4967171;28;20078;-65
2022/10/07 08:19:26;;;;;;;26.75;7.10;;;;;;;;;;4969651;28;20065;-65
2022/10/07 08:21:52;;;;;;;26.73;7.07;;;;;;;;;;4947514;28;20127;-65
2022/10/07 08:24:19;;;;;;;24.80;6.60;;;;;;;;;;4969462;28;20058;-65
2022/10/07 08:26:46;;;;;;;24.98;5.65;;;;;;;;;;4969551;28;20091;-65
2022/10/07 08:29:12;;;;;;;22.20;5.82;;;;;;;;;;4969252;28;20117;-65
2022/10/07 08:31:40;;;;;;;24.00;5.93;;;;;;;;;;4968610;28;20031;-65
2022/10/07 08:34:07;;;;;;;24.40;6.55;;;;;;;;;;4949884;28;20057;-65
2022/10/07 08:36:33;;;;;;;22.63;5.25;;;;;;;;;;4967191;28;20112;-65
2022/10/07 08:39:00;;;;;;;24.40;7.18;;;;;;;;;;4965152;28;20520;-65
2022/10/07 08:41:49;;;;;;;20.08;5.43;;;;;;;;;;4967152;28;20102;-65
2022/10/07 08:44:18;;;;;;;18.73;5.22;;;;;;;;;;4965423;28;20134;-65
2022/10/07 08:46:51;;;;;;;22.38;5.32;;;;;;;;;;4966246;28;20064;-65
2022/10/07 08:49:23;;;;;;;22.17;5.00;;;;;;;;;;4966737;28;20053;-65
2022/10/07 08:51:52;;;;;;;16.77;4.50;;;;;;;;;;4967216;28;20049;-65
2022/10/07 08:54:25;;;;;;;18.60;5.07;;;;;;;;;;4947329;28;20149;-64
2022/10/07 08:56:52;;;;;;;19.35;4.93;;;;;;;;;;4964345;28;20082;-63
2022/10/07 08:59:32;;;;;;;23.08;4.50;;;;;;;;;;4966719;28;20045;-65
2022/10/07 09:02:09;;;;;;;25.70;5.03;;;;;;;;;;4964992;28;20046;-65
2022/10/07 09:04:41;;;;;;;18.20;5.22;;;;;;;;;;4968343;28;20390;-65
2022/10/07 09:07:09;;;;;;;19.70;4.72;;;;;;;;;;4969607;28;20181;-64
2022/10/07 09:09:38;;;;;;;19.98;4.50;;;;;;;;;;4981355;28;20050;-65
2022/10/07 09:12:07;;;;;;;20.08;3.88;;;;;;;;;;4984561;28;20047;-67
2022/10/07 09:14:36;;;;;;;21.55;4.68;;;;;;;;;;4987037;28;20061;-66
2022/10/07 09:17:06;;;;;;;19.25;4.03;;;;;;;;;;4989098;28;20041;-64
2022/10/07 09:19:34;;;;;;;21.10;4.88;;;;;;;;;;4989242;28;20045;-64
2022/10/07 09:22:05;;;;;;;24.92;4.90;;;;;;;;;;4989206;28;20188;-64
2022/10/07 09:24:31;;;;;;;16.73;4.53;;;;;;;;;;4988334;28;20046;-65
2022/10/07 09:26:59;;;;;;;21.27;5.43;;;;;;;;;;4989305;28;20082;-64
2022/10/07 09:29:28;;;;;;;21.17;5.60;;;;;;;;;;4987143;28;20286;-64
2022/10/07 09:31:55;;;;;;;21.52;4.82;;;;;;;;;;4988972;28;20042;-64
2022/10/07 09:34:22;;;;;;;18.60;3.85;;;;;;;;;;4989831;28;20064;-64
2022/10/07 09:37:07;;;;;;;17.52;4.80;;;;;;;;;;4987314;28;20125;-64
2022/10/07 09:39:33;;;;;;;24.80;4.68;;;;;;;;;;4986548;28;20050;-65
2022/10/07 09:41:59;;;;;;;23.52;4.80;;;;;;;;;;4990327;28;20056;-64
2022/10/07 09:44:26;;;;;;;17.50;4.15;;;;;;;;;;4988395;28;20050;-64
2022/10/07 09:46:56;;;;;;;19.85;3.95;;;;;;;;;;4987646;28;20093;-64
2022/10/07 09:49:29;;;;;;;18.75;4.00;;;;;;;;;;4988478;28;20042;-64
2022/10/07 09:52:01;;;;;;;22.45;4.53;;;;;;;;;;4985287;28;20038;-63
2022/10/07 09:54:28;;;;;;;18.17;4.90;;;;;;;;;;4987482;28;20054;-64
2022/10/07 09:56:56;;;;;;;15.13;3.97;;;;;;;;;;4988635;28;20464;-64
2022/10/07 09:59:25;;;;;;;17.92;3.72;;;;;;;;;;4987163;28;20264;-64
2022/10/07 10:01:51;;;;;;;27.63;5.47;;;;;;;;;;4986681;28;20049;-64
2022/10/07 10:04:18;;;;;;;13.07;3.88;;;;;;;;;;4969274;28;20050;-64
2022/10/07 10:06:47;;;;;;;17.98;4.65;;;;;;;;;;4983727;28;20121;-64
2022/10/07 10:09:14;;;;;;;20.02;4.50;;;;;;;;;;4987453;28;20112;-64
2022/10/07 10:11:40;;;;;;;21.17;4.88;;;;;;;;;;4983974;28;20460;-65
2022/10/07 10:14:27;;;;;;;20.48;4.43;;;;;;;;;;4988530;28;20042;-65
2022/10/07 10:16:53;;;;;;;15.20;5.03;;;;;;;;;;4986983;28;20101;-65
2022/10/07 10:19:22;;;;;;;21.58;4.72;;;;;;;;;;4987367;28;20050;-65
2022/10/07 10:21:52;;;;;;;18.70;3.42;;;;;;;;;;4986537;28;20165;-65
2022/10/07 10:26:24;;;;;;;20.33;4.28;;;;;;;;;;4986741;28;20213;-65
2022/10/07 10:27:05;;;;;;;22.13;5.15;;;;;;;;;;4991841;28;20043;-65
2022/10/07 10:29:41;;;;;;;23.65;5.38;;;;;;;;;;4990445;28;20050;-65
2022/10/07 10:32:19;;;;;;;22.33;5.47;;;;;;;;;;4990560;28;20073;-65
2022/10/07 10:34:53;;;;;;;15.68;3.40;;;;;;;;;;4989471;28;20054;-66
2022/10/07 10:37:20;;;;;;;26.08;4.55;;;;;;;;;;4991873;28;20050;-65
2022/10/07 10:39:46;;;;;;;20.30;4.78;;;;;;;;;;4991321;28;20080;-64
2022/10/07 10:42:14;;;;;;;17.35;4.28;;;;;;;;;;4992453;28;20050;-65
2022/10/07 10:45:02;;;;;;;15.95;3.95;;;;;;;;;;4992533;28;20512;-65
2022/10/07 10:47:28;;;;;;;16.13;3.88;;;;;;;;;;4988834;28;20117;-65
2022/10/07 10:50:04;;;;;;;21.27;3.70;;;;;;;;;;4991823;28;20070;-65
2022/10/07 10:52:49;;;;;;;16.75;4.18;;;;;;;;;;4988559;28;20038;-65
2022/10/07 10:55:32;;;;;;;16.88;3.85;;;;;;;;;;4989409;28;20399;-65
2022/10/07 10:58:08;;;;;;;17.73;4.30;;;;;;;;;;4990342;28;20038;-64
2022/10/07 11:00:46;;;;;;;17.25;3.97;;;;;;;;;;4984664;28;20137;-66
2022/10/07 11:03:23;;;;;;;20.00;5.07;;;;;;;;;;4980957;28;20450;-65
2022/10/07 11:05:49;;;;;;;20.80;5.00;;;;;;;;;;4984127;28;20113;-65
2022/10/07 11:08:17;;;;;;;19.13;5.22;;;;;;;;;;4984353;28;20046;-65
2022/10/07 11:10:48;;;;;;;15.55;3.50;;;;;;;;;;4984879;28;20094;-65
2022/10/07 11:13:33;;;;;;;15.55;3.65;;;;;;;;;;4985244;28;20089;-65
2022/10/07 11:16:06;;;;;;;17.55;4.35;;;;;;;;;;4984597;28;20050;-64
2022/10/07 11:18:32;;;;;;;;;;;;;;;;;;4968737;28;20137;-65
2022/10/07 11:20:59;;;;;;;16.83;4.05;;;;;;;;;;4983106;28;20293;-65
2022/10/07 11:23:30;;;;;;;14.88;2.95;;;;;;;;;;4981526;28;20043;-65
2022/10/07 11:26:02;;;;;;;14.73;3.58;;;;;;;;;;4982800;28;20073;-65
2022/10/07 11:28:29;;;;;;;15.77;3.42;;;;;;;;;;4980623;28;20061;-65
2022/10/07 11:30:56;;;;;;;13.90;3.65;;;;;;;;;;4982349;28;20050;-65
2022/10/07 11:33:27;;;;;;;18.42;3.70;;;;;;;;;;4984972;28;20046;-65
2022/10/07 11:35:56;;;;;;;23.02;4.45;;;;;;;;;;4982416;28;20273;-65
2022/10/07 11:38:27;;;;;;;19.20;3.60;;;;;;;;;;4983240;28;20125;-65
2022/10/07 11:40:53;;;;;;;17.17;3.67;;;;;;;;;;4984226;28;20054;-66
2022/10/07 11:43:30;;;;;;;20.15;4.47;;;;;;;;;;4983129;28;20100;-65
2022/10/07 11:45:59;;;;;;;20.02;3.33;;;;;;;;;;4979529;28;20046;-65
2022/10/07 11:48:31;;;;;;;15.93;3.63;;;;;;;;;;4983135;28;20050;-63
2022/10/07 11:51:04;;;;;;;14.88;2.95;;;;;;;;;;4982693;28;20045;-63
2022/10/07 11:53:33;;;;;;;15.00;3.55;;;;;;;;;;4982747;28;20046;-63
2022/10/07 11:56:01;;;;;;;19.98;4.30;;;;;;;;;;4982585;28;20042;-64
2022/10/07 11:58:36;;;;;;;17.23;3.58;;;;;;;;;;4985065;28;20062;-66
2022/10/07 12:01:28;;;;;;;16.33;3.97;;;;;;;;;;4985073;28;20060;-66
2022/10/07 12:03:58;;;;;;;17.63;3.70;;;;;;;;;;4979514;28;20046;-65
2022/10/07 12:06:25;;;;;;;16.67;4.15;;;;;;;;;;4979733;28;20059;-64
2022/10/07 12:08:52;;;;;;;20.77;4.20;;;;;;;;;;4989452;28;20057;-65
2022/10/07 12:11:19;;;;;;;19.65;3.88;;;;;;;;;;4987397;28;21417;-65
2022/10/07 12:13:49;;;;;;;18.60;4.63;;;;;;;;;;4988512;28;20092;-65
2022/10/07 12:16:24;;;;;;;17.60;3.42;;;;;;;;;;4987444;28;20121;-65
2022/10/07 12:19:06;;;;;;;23.67;3.85;;;;;;;;;;4986736;28;20068;-64
2022/10/07 12:21:51;;;;;;;21.50;4.07;;;;;;;;;;4983686;28;20050;-65
2022/10/07 12:24:18;;;;;;;22.30;4.65;;;;;;;;;;4988073;28;20042;-63
2022/10/07 12:26:44;;;;;;;19.40;3.40;;;;;;;;;;4985604;28;20514;-63
2022/10/07 12:29:21;;;;;;;17.60;3.65;;;;;;;;;;4986182;28;20038;-62
2022/10/07 12:31:47;;;;;;;23.88;3.78;;;;;;;;;;4967803;28;20046;-64
2022/10/07 12:34:22;;;;;;;16.15;3.38;;;;;;;;;;4985877;28;20047;-63
2022/10/07 12:36:48;;;;;;;15.32;3.42;;;;;;;;;;4968321;28;20104;-63
2022/10/07 12:39:14;;;;;;;14.38;3.17;;;;;;;;;;4984098;28;20046;-63
2022/10/07 12:41:45;;;;;;;13.00;3.22;;;;;;;;;;4985031;28;20046;-63
2022/10/07 12:44:20;;;;;;;13.88;2.90;;;;;;;;;;4984446;28;20049;-63
2022/10/07 12:46:49;;;;;;;13.57;2.90;;;;;;;;;;4984337;28;20097;-63
2022/10/07 12:49:23;;;;;;;13.10;3.00;;;;;;;;;;4985236;28;20051;-63
2022/10/07 12:51:52;;;;;;;13.57;3.58;;;;;;;;;;4981638;28;20054;-63
2022/10/07 12:54:20;;;;;;;16.50;3.17;;;;;;;;;;4983751;28;20482;-63
2022/10/07 12:56:46;;;;;;;15.30;3.50;;;;;;;;;;4968212;28;20068;-63
2022/10/07 13:02:25;;;;;;;16.42;3.15;;;;;;;;;;4996512;28;20108;-63
2022/10/07 13:04:58;;;;;;;14.50;3.20;;;;;;;;;;4979673;28;20054;-62
2022/10/07 13:07:34;;;;;;;18.25;3.20;;;;;;;;;;4979565;28;20125;-63
2022/10/07 13:10:09;;;;;;;19.95;3.17;;;;;;;;;;4983629;28;20101;-63
2022/10/07 13:12:36;;;;;;;13.43;2.88;;;;;;;;;;4981986;28;20482;-63
2022/10/07 13:15:10;;;;;;;14.57;2.92;;;;;;;;;;4980762;28;20763;-63
2022/10/07 13:17:41;;;;;;;14.93;3.03;;;;;;;;;;4982133;28;20073;-63
2022/10/07 13:20:26;;;;;;;14.55;2.63;;;;;;;;;;4983359;28;20100;-63
2022/10/07 13:22:52;;;;;;;14.60;2.85;;;;;;;;;;4980413;28;20627;-63
2022/10/07 13:25:19;;;;;;;17.63;3.60;;;;;;;;;;4986065;28;20490;-63
2022/10/07 13:27:50;;;;;;;16.65;3.80;;;;;;;;;;4982375;28;20038;-63
2022/10/07 13:30:35;;;;;;;18.27;3.63;;;;;;;;;;4983663;28;20811;-63
2022/10/07 13:33:12;;;;;;;18.77;3.47;;;;;;;;;;4984723;28;20128;-63
2022/10/07 13:35:38;;;;;;;14.93;3.38;;;;;;;;;;4981090;28;20104;-63
2022/10/07 13:38:04;;;;;;;19.45;4.18;;;;;;;;;;4981123;28;20046;-63
2022/10/07 13:40:34;;;;;;;20.73;3.33;;;;;;;;;;4982775;28;20101;-63
2022/10/07 13:43:02;;;;;;;16.73;3.38;;;;;;;;;;4979359;28;20070;-63
2022/10/07 13:45:28;;;;;;;14.32;3.00;;;;;;;;;;4982144;28;20078;-62
2022/10/07 13:47:56;;;;;;;20.58;3.45;;;;;;;;;;4981765;28;20034;-63
2022/10/07 13:50:25;;;;;;;19.63;3.20;;;;;;;;;;4980566;28;20120;-63
2022/10/07 13:52:54;;;;;;;19.65;3.88;;;;;;;;;;4980320;28;20057;-63
2022/10/07 13:55:25;;;;;;;21.98;3.60;;;;;;;;;;4979750;28;20086;-63
2022/10/07 13:57:52;;;;;;;15.00;3.03;;;;;;;;;;4981778;28;20051;-63
2022/10/07 14:00:18;;;;;;;11.63;3.38;;;;;;;;;;4981030;28;20384;-63
2022/10/07 14:02:45;;;;;;;10.82;2.45;;;;;;;;;;4979980;28;20064;-63
2022/10/07 14:05:20;;;;;;;16.85;3.20;;;;;;;;;;4981124;28;20077;-63
2022/10/07 14:07:46;;;;;;;21.13;3.35;;;;;;;;;;4980796;28;20449;-63
2022/10/07 14:10:12;;;;;;;15.93;3.00;;;;;;;;;;4979255;28;20042;-64
2022/10/07 14:12:38;;;;;;;17.88;2.83;;;;;;;;;;4982372;28;20146;-64
2022/10/07 14:15:10;;;;;;;22.55;4.07;;;;;;;;;;4978314;28;20164;-63
2022/10/07 14:17:42;;;;;;;15.55;3.08;;;;;;;;;;4978682;28;20046;-63
2022/10/07 14:20:20;;;;;;;18.42;4.75;;;;;;;;;;4983957;28;20053;-63
2022/10/07 14:22:48;;;;;;;14.15;2.78;;;;;;;;;;4980235;28;20046;-63
2022/10/07 14:25:31;;;;;;;17.63;2.85;;;;;;;;;;4981590;28;20477;-63
2022/10/07 14:27:58;;;;;;;13.52;2.92;;;;;;;;;;4984309;28;20054;-64
2022/10/07 14:30:25;;;;;;;13.55;2.75;;;;;;;;;;4980826;28;20390;-64
2022/10/07 14:36:07;;;;;;;20.70;3.38;;;;;;;;;;4985108;28;20050;-65
2022/10/07 14:38:33;;;;;;;20.45;4.70;;;;;;;;;;4980529;28;20371;-64
2022/10/07 14:40:59;;;;;;;16.50;3.58;;;;;;;;;;4984170;28;20046;-64
2022/10/07 14:43:26;;;;;;;16.45;3.85;;;;;;;;;;4977646;28;20131;-64
2022/10/07 14:45:52;;;;;;;19.70;4.20;;;;;;;;;;4979091;28;20153;-64
2022/10/07 14:48:19;;;;;;;14.75;2.60;;;;;;;;;;4980167;28;20087;-64
2022/10/07 14:50:45;;;;;;;15.35;2.90;;;;;;;;;;4983901;28;20034;-64
2022/10/07 14:53:13;;;;;;;13.05;2.63;;;;;;;;;;4981053;28;20030;-64